sensor_id;sensor_type;location;lat;lon;timestamp;pressure;altitude;pressure_sealevel;temperature;humidity
13124;BME280;6627;50.920;12.050;2023-03-26T00:01:33;97663.72;;;16.22;48.09
13124;BME280;6627;50.920;12.050;2023-03-26T00:04:03;97734.66;;;16.61;48.44
13124;BME280;6627;50.920;12.050;2023-03-26T00:06:34;97644.38;;;16.08;48.42
13124;BME280;6627;50.920;12.050;2023-03-26T00:09:09;97667.06;;;16.12;49.08
13124;BME280;6627;50.920;12.050;2023-03-26T00:11:37;97664.69;;;16.10;48.57
13124;BME280;6627;50.920;12.050;2023-03-26T00:14:05;97681.16;;;16.14;49.12
13124;BME280;6627;50.920;12.050;2023-03-26T00:16:32;97714.00;;;16.40;48.99
13124;BME280;6627;50.920;12.050;2023-03-26T00:19:01;97696.81;;;16.40;48.63
13124;BME280;6627;50.920;12.050;2023-03-26T00:21:30;97737.94;;;16.47;48.87
13124;BME280;6627;50.920;12.050;2023-03-26T00:24:01;97849.69;;;17.40;47.63
13124;BME280;6627;50.920;12.050;2023-03-26T00:26:31;97748.25;;;16.57;48.06
13124;BME280;6627;50.920;12.050;2023-03-26T00:29:00;97794.69;;;17.00;47.39
13124;BME280;6627;50.920;12.050;2023-03-26T00:31:29;97735.19;;;16.70;47.50
13124;BME280;6627;50.920;12.050;2023-03-26T00:33:57;97837.88;;;17.36;47.15
13124;BME280;6627;50.920;12.050;2023-03-26T00:36:28;97747.97;;;16.85;47.46
13124;BME280;6627;50.920;12.050;2023-03-26T00:38:55;97696.41;;;16.38;47.86
13124;BME280;6627;50.920;12.050;2023-03-26T00:41:24;97776.50;;;17.11;47.19
13124;BME280;6627;50.920;12.050;2023-03-26T00:43:58;97738.59;;;16.86;47.36
13124;BME280;6627;50.920;12.050;2023-03-26T00:46:28;97707.28;;;16.34;48.45
13124;BME280;6627;50.920;12.050;2023-03-26T00:48:56;97745.66;;;16.87;47.81
13124;BME280;6627;50.920;12.050;2023-03-26T00:51:26;97608.56;;;15.67;48.69
13124;BME280;6627;50.920;12.050;2023-03-26T00:53:54;97498.59;;;15.24;47.87
13124;BME280;6627;50.920;12.050;2023-03-26T00:56:22;97749.59;;;16.90;47.79
13124;BME280;6627;50.920;12.050;2023-03-26T00:58:49;97694.41;;;16.35;48.24
13124;BME280;6627;50.920;12.050;2023-03-26T01:01:23;97741.66;;;16.81;47.63
13124;BME280;6627;50.920;12.050;2023-03-26T01:03:53;97730.94;;;16.50;48.56
13124;BME280;6627;50.920;12.050;2023-03-26T01:06:27;97797.97;;;16.86;48.81
13124;BME280;6627;50.920;12.050;2023-03-26T01:09:03;97689.03;;;16.19;48.85
13124;BME280;6627;50.920;12.050;2023-03-26T01:11:34;97657.03;;;15.97;48.75
13124;BME280;6627;50.920;12.050;2023-03-26T01:14:08;97695.41;;;16.50;48.32
13124;BME280;6627;50.920;12.050;2023-03-26T01:16:40;97692.94;;;16.18;48.87
13124;BME280;6627;50.920;12.050;2023-03-26T01:19:20;97678.75;;;15.89;49.33
13124;BME280;6627;50.920;12.050;2023-03-26T01:21:49;97760.25;;;16.72;49.00
13124;BME280;6627;50.920;12.050;2023-03-26T01:24:19;97751.88;;;16.84;47.78
13124;BME280;6627;50.920;12.050;2023-03-26T01:26:59;97795.13;;;17.02;48.07
13124;BME280;6627;50.920;12.050;2023-03-26T01:29:37;97755.22;;;16.74;48.14
13124;BME280;6627;50.920;12.050;2023-03-26T01:32:21;97782.03;;;16.69;48.77
13124;BME280;6627;50.920;12.050;2023-03-26T01:35:07;97876.31;;;17.70;47.54
13124;BME280;6627;50.920;12.050;2023-03-26T01:37:51;97802.28;;;17.10;47.94
13124;BME280;6627;50.920;12.050;2023-03-26T01:40:32;97830.50;;;17.14;48.35
13124;BME280;6627;50.920;12.050;2023-03-26T01:43:12;97907.03;;;18.09;46.71
13124;BME280;6627;50.920;12.050;2023-03-26T01:45:46;97850.22;;;17.76;46.53
13124;BME280;6627;50.920;12.050;2023-03-26T01:48:16;97879.81;;;17.94;46.69
13124;BME280;6627;50.920;12.050;2023-03-26T01:50:44;97850.59;;;18.05;45.58
13124;BME280;6627;50.920;12.050;2023-03-26T01:53:13;97955.88;;;18.90;45.44
13124;BME280;6627;50.920;12.050;2023-03-26T01:55:54;97857.19;;;18.30;45.43
13124;BME280;6627;50.920;12.050;2023-03-26T01:58:34;97837.50;;;18.21;45.40
13124;BME280;6627;50.920;12.050;2023-03-26T02:01:17;97776.16;;;17.69;46.94
13124;BME280;6627;50.920;12.050;2023-03-26T02:03:55;97857.28;;;18.37;46.00
13124;BME280;6627;50.920;12.050;2023-03-26T02:06:31;97695.16;;;17.08;46.72
13124;BME280;6627;50.920;12.050;2023-03-26T02:09:06;97635.19;;;16.43;48.36
13124;BME280;6627;50.920;12.050;2023-03-26T02:11:39;97593.00;;;16.17;48.18
13124;BME280;6627;50.920;12.050;2023-03-26T02:14:08;97861.63;;;18.08;46.70
13124;BME280;6627;50.920;12.050;2023-03-26T02:16:35;97858.75;;;18.31;46.28
13124;BME280;6627;50.920;12.050;2023-03-26T02:19:03;97740.78;;;17.27;47.28
13124;BME280;6627;50.920;12.050;2023-03-26T02:21:30;97857.28;;;18.37;45.93
13124;BME280;6627;50.920;12.050;2023-03-26T02:24:00;97630.38;;;16.85;46.46
13124;BME280;6627;50.920;12.050;2023-03-26T02:26:30;97667.91;;;16.62;47.67
13124;BME280;6627;50.920;12.050;2023-03-26T02:28:59;97834.44;;;17.96;46.78
13124;BME280;6627;50.920;12.050;2023-03-26T02:31:27;97718.72;;;17.16;47.10
13124;BME280;6627;50.920;12.050;2023-03-26T02:33:55;97743.53;;;17.57;46.63
13124;BME280;6627;50.920;12.050;2023-03-26T02:36:23;97760.06;;;17.64;46.67
13124;BME280;6627;50.920;12.050;2023-03-26T02:38:53;97593.81;;;16.18;48.21
13124;BME280;6627;50.920;12.050;2023-03-26T02:41:23;97662.44;;;16.62;48.20
13124;BME280;6627;50.920;12.050;2023-03-26T02:43:50;97672.34;;;16.47;49.13
13124;BME280;6627;50.920;12.050;2023-03-26T02:46:18;97641.09;;;15.99;50.17
13124;BME280;6627;50.920;12.050;2023-03-26T02:48:46;97679.09;;;16.30;50.09
13124;BME280;6627;50.920;12.050;2023-03-26T02:51:13;97602.94;;;15.41;51.93
13124;BME280;6627;50.920;12.050;2023-03-26T02:53:43;97729.66;;;16.21;51.31
13124;BME280;6627;50.920;12.050;2023-03-26T02:56:10;97774.91;;;16.64;50.45
13124;BME280;6627;50.920;12.050;2023-03-26T02:58:38;97746.94;;;16.48;50.31
13124;BME280;6627;50.920;12.050;2023-03-26T03:01:05;97800.38;;;16.87;50.15
13124;BME280;6627;50.920;12.050;2023-03-26T03:03:34;97770.81;;;16.97;49.17
13124;BME280;6627;50.920;12.050;2023-03-26T03:06:01;97794.09;;;17.10;48.70
13124;BME280;6627;50.920;12.050;2023-03-26T03:08:28;97806.34;;;17.20;48.49
13124;BME280;6627;50.920;12.050;2023-03-26T03:10:57;97753.44;;;16.85;48.47
13124;BME280;6627;50.920;12.050;2023-03-26T03:13:25;97781.44;;;17.02;49.18
13124;BME280;6627;50.920;12.050;2023-03-26T03:15:52;97722.75;;;16.50;49.61
13124;BME280;6627;50.920;12.050;2023-03-26T03:18:19;97832.63;;;17.51;48.75
13124;BME280;6627;50.920;12.050;2023-03-26T03:20:48;97651.41;;;15.86;50.61
13124;BME280;6627;50.920;12.050;2023-03-26T03:23:16;97678.00;;;16.12;50.44
13124;BME280;6627;50.920;12.050;2023-03-26T03:25:43;97816.50;;;17.19;49.49
13124;BME280;6627;50.920;12.050;2023-03-26T03:28:10;97779.34;;;16.92;49.54
13124;BME280;6627;50.920;12.050;2023-03-26T03:30:38;97861.25;;;17.83;47.98
13124;BME280;6627;50.920;12.050;2023-03-26T03:33:06;97825.25;;;17.55;48.04
13124;BME280;6627;50.920;12.050;2023-03-26T03:35:33;97832.81;;;17.65;47.56
13124;BME280;6627;50.920;12.050;2023-03-26T03:38:02;97826.81;;;17.56;48.12
13124;BME280;6627;50.920;12.050;2023-03-26T03:40:29;97818.00;;;17.70;47.49
13124;BME280;6627;50.920;12.050;2023-03-26T03:42:56;97818.28;;;17.87;46.57
13124;BME280;6627;50.920;12.050;2023-03-26T03:45:23;97815.78;;;17.75;47.31
13124;BME280;6627;50.920;12.050;2023-03-26T03:47:51;97698.69;;;16.82;48.67
13124;BME280;6627;50.920;12.050;2023-03-26T03:50:19;97784.16;;;17.81;47.14
13124;BME280;6627;50.920;12.050;2023-03-26T03:52:46;97667.53;;;16.40;49.27
13124;BME280;6627;50.920;12.050;2023-03-26T03:55:15;97661.66;;;16.38;49.25
13124;BME280;6627;50.920;12.050;2023-03-26T03:57:43;97664.97;;;16.25;50.09
13124;BME280;6627;50.920;12.050;2023-03-26T04:00:12;97750.38;;;16.90;49.72
13124;BME280;6627;50.920;12.050;2023-03-26T04:02:40;97673.56;;;16.27;49.56
13124;BME280;6627;50.920;12.050;2023-03-26T04:05:08;97615.59;;;15.68;50.79
13124;BME280;6627;50.920;12.050;2023-03-26T04:07:36;97570.50;;;15.16;52.18
13124;BME280;6627;50.920;12.050;2023-03-26T04:10:06;97822.56;;;16.63;51.95
13124;BME280;6627;50.920;12.050;2023-03-26T04:12:35;97734.31;;;16.20;51.33
13124;BME280;6627;50.920;12.050;2023-03-26T04:15:03;97691.97;;;15.87;51.36
13124;BME280;6627;50.920;12.050;2023-03-26T04:17:30;97715.09;;;15.94;51.90
13124;BME280;6627;50.920;12.050;2023-03-26T04:19:57;97872.00;;;17.43;49.65
13124;BME280;6627;50.920;12.050;2023-03-26T04:22:31;97887.09;;;17.82;48.31
13124;BME280;6627;50.920;12.050;2023-03-26T04:24:59;97823.69;;;16.81;51.35
13124;BME280;6627;50.920;12.050;2023-03-26T04:27:31;97942.06;;;17.97;49.67
13124;BME280;6627;50.920;12.050;2023-03-26T04:30:03;97617.88;;;15.66;50.91
13124;BME280;6627;50.920;12.050;2023-03-26T04:32:33;97899.84;;;17.98;48.83
13124;BME280;6627;50.920;12.050;2023-03-26T04:35:01;97844.53;;;17.62;48.88
13124;BME280;6627;50.920;12.050;2023-03-26T04:37:33;97747.97;;;16.85;49.06
13124;BME280;6627;50.920;12.050;2023-03-26T04:40:02;97792.88;;;16.84;51.10
13124;BME280;6627;50.920;12.050;2023-03-26T04:42:35;97960.69;;;18.40;48.75
13124;BME280;6627;50.920;12.050;2023-03-26T04:45:09;97669.41;;;16.82;47.89
13124;BME280;6627;50.920;12.050;2023-03-26T04:47:36;97747.53;;;16.60;50.00
13124;BME280;6627;50.920;12.050;2023-03-26T04:50:07;97760.81;;;17.08;48.80
13124;BME280;6627;50.920;12.050;2023-03-26T04:52:36;97844.47;;;17.58;48.23
13124;BME280;6627;50.920;12.050;2023-03-26T04:55:07;97831.66;;;17.93;47.26
13124;BME280;6627;50.920;12.050;2023-03-26T04:57:41;97928.13;;;18.35;47.69
13124;BME280;6627;50.920;12.050;2023-03-26T05:00:15;97866.59;;;18.29;46.37
13124;BME280;6627;50.920;12.050;2023-03-26T05:02:45;97712.78;;;17.37;46.67
13124;BME280;6627;50.920;12.050;2023-03-26T05:05:16;97710.31;;;17.28;47.67
13124;BME280;6627;50.920;12.050;2023-03-26T05:07:43;97816.50;;;17.72;48.00
13124;BME280;6627;50.920;12.050;2023-03-26T05:10:13;97842.88;;;18.14;47.36
13124;BME280;6627;50.920;12.050;2023-03-26T05:12:41;97768.59;;;17.59;47.51
13124;BME280;6627;50.920;12.050;2023-03-26T05:15:12;97787.25;;;17.50;48.19
13124;BME280;6627;50.920;12.050;2023-03-26T05:17:40;97822.41;;;18.04;47.05
13124;BME280;6627;50.920;12.050;2023-03-26T05:20:17;97767.66;;;17.48;47.73
13124;BME280;6627;50.920;12.050;2023-03-26T05:22:46;97797.53;;;17.60;48.17
13124;BME280;6627;50.920;12.050;2023-03-26T05:25:14;97739.25;;;17.29;47.81
13124;BME280;6627;50.920;12.050;2023-03-26T05:27:42;97728.94;;;16.93;49.08
13124;BME280;6627;50.920;12.050;2023-03-26T05:30:15;97811.50;;;17.51;48.66
13124;BME280;6627;50.920;12.050;2023-03-26T05:32:43;97736.38;;;17.19;48.31
13124;BME280;6627;50.920;12.050;2023-03-26T05:35:11;97770.44;;;17.25;48.74
13124;BME280;6627;50.920;12.050;2023-03-26T05:37:40;97863.97;;;18.10;47.46
13124;BME280;6627;50.920;12.050;2023-03-26T05:40:11;97786.06;;;17.77;47.39
13124;BME280;6627;50.920;12.050;2023-03-26T05:42:40;97723.47;;;17.19;47.87
13124;BME280;6627;50.920;12.050;2023-03-26T05:45:10;97883.09;;;18.36;47.02
13124;BME280;6627;50.920;12.050;2023-03-26T05:47:40;97690.59;;;17.15;46.86
13124;BME280;6627;50.920;12.050;2023-03-26T05:50:09;97785.41;;;17.87;46.58
13124;BME280;6627;50.920;12.050;2023-03-26T05:52:36;97891.41;;;18.74;45.87
13124;BME280;6627;50.920;12.050;2023-03-26T05:55:05;97902.16;;;19.34;43.96
13124;BME280;6627;50.920;12.050;2023-03-26T05:57:33;97857.09;;;18.90;45.12
13124;BME280;6627;50.920;12.050;2023-03-26T06:00:02;97861.19;;;19.11;44.51
13124;BME280;6627;50.920;12.050;2023-03-26T06:02:31;97787.00;;;18.59;45.10
13124;BME280;6627;50.920;12.050;2023-03-26T06:05:00;97806.56;;;18.58;46.01
13124;BME280;6627;50.920;12.050;2023-03-26T06:07:27;97803.59;;;18.70;45.45
13124;BME280;6627;50.920;12.050;2023-03-26T06:09:56;97846.34;;;19.19;44.62
13124;BME280;6627;50.920;12.050;2023-03-26T06:12:23;97871.44;;;19.62;43.69
13124;BME280;6627;50.920;12.050;2023-03-26T06:14:50;97904.91;;;19.82;43.57
13124;BME280;6627;50.920;12.050;2023-03-26T06:17:17;97755.22;;;18.96;44.00
13124;BME280;6627;50.920;12.050;2023-03-26T06:19:44;97759.00;;;18.80;44.85
13124;BME280;6627;50.920;12.050;2023-03-26T06:22:14;97728.13;;;18.50;45.18
13124;BME280;6627;50.920;12.050;2023-03-26T06:24:41;97695.81;;;18.25;45.54
13124;BME280;6627;50.920;12.050;2023-03-26T06:27:08;97696.06;;;18.13;45.99
13124;BME280;6627;50.920;12.050;2023-03-26T06:29:35;97760.38;;;18.60;45.57
13124;BME280;6627;50.920;12.050;2023-03-26T06:32:02;97575.00;;;17.22;46.88
13124;BME280;6627;50.920;12.050;2023-03-26T06:34:30;97770.88;;;18.51;46.21
13124;BME280;6627;50.920;12.050;2023-03-26T06:36:57;97763.69;;;18.80;45.08
13124;BME280;6627;50.920;12.050;2023-03-26T06:39:26;97751.00;;;18.64;45.23
13124;BME280;6627;50.920;12.050;2023-03-26T06:41:53;97680.59;;;17.90;46.56
13124;BME280;6627;50.920;12.050;2023-03-26T06:44:21;97591.34;;;17.52;45.76
13124;BME280;6627;50.920;12.050;2023-03-26T06:46:49;97633.13;;;17.46;46.97
13124;BME280;6627;50.920;12.050;2023-03-26T06:49:16;97608.25;;;17.61;46.41
13124;BME280;6627;50.920;12.050;2023-03-26T06:51:44;97743.88;;;18.56;45.73
13124;BME280;6627;50.920;12.050;2023-03-26T06:54:13;97627.44;;;17.99;45.14
13124;BME280;6627;50.920;12.050;2023-03-26T06:56:43;97649.41;;;18.06;45.38
13124;BME280;6627;50.920;12.050;2023-03-26T06:59:10;97741.03;;;18.90;44.60
13124;BME280;6627;50.920;12.050;2023-03-26T07:01:37;97792.19;;;19.12;44.41
13124;BME280;6627;50.920;12.050;2023-03-26T07:04:04;97592.66;;;17.65;45.75
13124;BME280;6627;50.920;12.050;2023-03-26T07:06:32;97780.22;;;18.87;45.25
13124;BME280;6627;50.920;12.050;2023-03-26T07:08:59;97618.63;;;17.79;45.90
13124;BME280;6627;50.920;12.050;2023-03-26T07:11:26;97555.03;;;16.88;47.72
13124;BME280;6627;50.920;12.050;2023-03-26T07:13:55;97524.38;;;16.75;47.76
13124;BME280;6627;50.920;12.050;2023-03-26T07:16:25;97644.47;;;17.48;47.52
13124;BME280;6627;50.920;12.050;2023-03-26T07:18:52;97679.84;;;17.97;46.59
13124;BME280;6627;50.920;12.050;2023-03-26T07:21:20;97473.38;;;16.60;47.15
13124;BME280;6627;50.920;12.050;2023-03-26T07:23:49;97668.88;;;17.94;46.53
13124;BME280;6627;50.920;12.050;2023-03-26T07:26:27;97681.50;;;18.02;46.43
13124;BME280;6627;50.920;12.050;2023-03-26T07:29:06;97677.53;;;17.99;45.94
13124;BME280;6627;50.920;12.050;2023-03-26T07:31:48;97717.03;;;18.35;45.89
13124;BME280;6627;50.920;12.050;2023-03-26T07:34:43;97687.91;;;18.17;45.35
13124;BME280;6627;50.920;12.050;2023-03-26T07:37:27;97651.69;;;17.97;46.11
13124;BME280;6627;50.920;12.050;2023-03-26T07:40:03;97702.31;;;18.51;45.33
13124;BME280;6627;50.920;12.050;2023-03-26T07:42:51;97658.22;;;18.26;45.08
13124;BME280;6627;50.920;12.050;2023-03-26T07:45:29;97722.13;;;18.74;44.51
13124;BME280;6627;50.920;12.050;2023-03-26T07:48:00;97778.25;;;19.35;43.65
13124;BME280;6627;50.920;12.050;2023-03-26T07:50:30;97665.72;;;18.80;43.19
13124;BME280;6627;50.920;12.050;2023-03-26T07:52:58;97716.22;;;19.27;42.94
13124;BME280;6627;50.920;12.050;2023-03-26T07:55:26;97636.06;;;18.97;42.89
13124;BME280;6627;50.920;12.050;2023-03-26T07:58:13;97802.16;;;20.04;42.42
13124;BME280;6627;50.920;12.050;2023-03-26T08:00:51;97752.66;;;19.94;42.31
13124;BME280;6627;50.920;12.050;2023-03-26T08:03:43;97569.34;;;18.82;42.44
13124;BME280;6627;50.920;12.050;2023-03-26T08:06:19;97604.75;;;19.05;42.34
13124;BME280;6627;50.920;12.050;2023-03-26T08:08:58;97602.69;;;18.95;42.61
13124;BME280;6627;50.920;12.050;2023-03-26T08:11:38;97601.63;;;19.10;42.15
13124;BME280;6627;50.920;12.050;2023-03-26T08:14:23;97559.47;;;18.70;42.72
13124;BME280;6627;50.920;12.050;2023-03-26T08:17:00;97551.75;;;18.86;42.38
13124;BME280;6627;50.920;12.050;2023-03-26T08:19:52;97564.53;;;18.68;43.03
13124;BME280;6627;50.920;12.050;2023-03-26T08:22:27;97656.81;;;19.74;41.19
13124;BME280;6627;50.920;12.050;2023-03-26T08:28:12;97560.84;;;19.05;41.92
13124;BME280;6627;50.920;12.050;2023-03-26T08:30:42;97728.44;;;20.38;40.54
13124;BME280;6627;50.920;12.050;2023-03-26T08:33:17;97522.41;;;19.12;41.39
13124;BME280;6627;50.920;12.050;2023-03-26T08:35:48;97630.13;;;19.71;41.35
13124;BME280;6627;50.920;12.050;2023-03-26T08:38:19;97502.78;;;19.03;40.89
13124;BME280;6627;50.920;12.050;2023-03-26T08:41:27;97486.25;;;18.85;42.06
13124;BME280;6627;50.920;12.050;2023-03-26T08:45:04;97601.88;;;19.81;40.88
13124;BME280;6627;50.920;12.050;2023-03-26T08:48:09;97600.28;;;19.73;41.13
13124;BME280;6627;50.920;12.050;2023-03-26T08:54:44;97660.09;;;20.62;39.24
13124;BME280;6627;50.920;12.050;2023-03-26T09:10:51;97568.13;;;20.41;39.07
13124;BME280;6627;50.920;12.050;2023-03-26T09:17:23;97433.91;;;19.72;38.98
13124;BME280;6627;50.920;12.050;2023-03-26T09:20:29;97625.44;;;21.04;38.44
13124;BME280;6627;50.920;12.050;2023-03-26T09:23:37;97552.00;;;20.69;38.19
13124;BME280;6627;50.920;12.050;2023-03-26T09:26:36;97581.41;;;20.97;37.97
13124;BME280;6627;50.920;12.050;2023-03-26T09:30:03;97640.59;;;21.55;36.88
13124;BME280;6627;50.920;12.050;2023-03-26T09:33:31;97448.59;;;20.71;36.87
13124;BME280;6627;50.920;12.050;2023-03-26T09:36:21;97398.44;;;20.31;37.88
13124;BME280;6627;50.920;12.050;2023-03-26T09:39:08;97512.56;;;21.00;37.53
13124;BME280;6627;50.920;12.050;2023-03-26T09:41:43;97448.56;;;20.85;36.54
13124;BME280;6627;50.920;12.050;2023-03-26T09:45:02;97435.16;;;20.91;36.59
13124;BME280;6627;50.920;12.050;2023-03-26T09:50:45;97400.25;;;20.74;36.84
13124;BME280;6627;50.920;12.050;2023-03-26T09:53:44;97317.47;;;20.39;36.15
13124;BME280;6627;50.920;12.050;2023-03-26T09:56:32;97300.28;;;20.28;36.38
13124;BME280;6627;50.920;12.050;2023-03-26T09:59:32;97118.63;;;19.10;37.38
13124;BME280;6627;50.920;12.050;2023-03-26T10:02:18;97324.19;;;20.38;36.66
13124;BME280;6627;50.920;12.050;2023-03-26T10:05:29;97411.50;;;21.01;36.27
13124;BME280;6627;50.920;12.050;2023-03-26T10:08:21;97447.53;;;21.31;35.75
13124;BME280;6627;50.920;12.050;2023-03-26T10:10:58;97204.75;;;19.55;38.00
13124;BME280;6627;50.920;12.050;2023-03-26T10:13:41;97370.13;;;20.49;37.68
13124;BME280;6627;50.920;12.050;2023-03-26T10:16:24;97296.44;;;20.01;38.21
13124;BME280;6627;50.920;12.050;2023-03-26T10:19:14;97189.91;;;19.42;38.06
13124;BME280;6627;50.920;12.050;2023-03-26T10:21:54;97307.84;;;20.03;38.21
13124;BME280;6627;50.920;12.050;2023-03-26T10:25:04;97165.66;;;19.12;38.82
13124;BME280;6627;50.920;12.050;2023-03-26T10:27:47;97341.97;;;20.05;39.01
13124;BME280;6627;50.920;12.050;2023-03-26T10:30:32;97449.09;;;20.52;38.88
13124;BME280;6627;50.920;12.050;2023-03-26T10:33:15;97350.53;;;20.32;37.80
13124;BME280;6627;50.920;12.050;2023-03-26T10:36:01;97417.66;;;20.46;38.69
13124;BME280;6627;50.920;12.050;2023-03-26T10:38:52;97383.47;;;20.50;37.97
13124;BME280;6627;50.920;12.050;2023-03-26T10:41:33;97338.69;;;20.42;37.48
13124;BME280;6627;50.920;12.050;2023-03-26T10:44:44;97341.09;;;20.33;38.08
13124;BME280;6627;50.920;12.050;2023-03-26T10:47:44;97361.88;;;20.41;37.94
13124;BME280;6627;50.920;12.050;2023-03-26T10:50:30;97330.03;;;20.40;37.52
13124;BME280;6627;50.920;12.050;2023-03-26T10:53:07;97380.16;;;20.80;36.76
13124;BME280;6627;50.920;12.050;2023-03-26T10:55:39;97304.94;;;20.38;36.89
13124;BME280;6627;50.920;12.050;2023-03-26T10:58:17;97258.78;;;19.98;38.16
13124;BME280;6627;50.920;12.050;2023-03-26T11:00:55;97285.66;;;20.46;36.44
13124;BME280;6627;50.920;12.050;2023-03-26T11:03:45;97133.38;;;19.52;37.18
13124;BME280;6627;50.920;12.050;2023-03-26T11:06:30;97335.13;;;20.53;36.99
13124;BME280;6627;50.920;12.050;2023-03-26T11:09:13;97131.88;;;19.36;36.99
13124;BME280;6627;50.920;12.050;2023-03-26T11:11:53;97229.84;;;19.75;37.85
13124;BME280;6627;50.920;12.050;2023-03-26T11:14:31;97437.28;;;21.35;35.76
13124;BME280;6627;50.920;12.050;2023-03-26T11:17:12;97355.69;;;20.97;36.15
13124;BME280;6627;50.920;12.050;2023-03-26T11:19:49;97459.19;;;21.53;35.37
13124;BME280;6627;50.920;12.050;2023-03-26T11:22:28;97276.53;;;20.63;36.38
13124;BME280;6627;50.920;12.050;2023-03-26T11:28:10;97154.47;;;19.83;37.29
13124;BME280;6627;50.920;12.050;2023-03-26T11:30:52;97235.06;;;20.32;36.71
13124;BME280;6627;50.920;12.050;2023-03-26T11:33:25;97178.22;;;20.15;36.42
13124;BME280;6627;50.920;12.050;2023-03-26T11:36:02;97069.94;;;19.32;37.21
13124;BME280;6627;50.920;12.050;2023-03-26T11:38:37;97135.72;;;19.57;37.63
13124;BME280;6627;50.920;12.050;2023-03-26T11:41:13;97138.13;;;19.40;38.06
13124;BME280;6627;50.920;12.050;2023-03-26T11:43:42;97240.66;;;20.11;37.58
13124;BME280;6627;50.920;12.050;2023-03-26T11:46:19;97173.31;;;19.74;37.73
13124;BME280;6627;50.920;12.050;2023-03-26T11:48:52;97024.69;;;18.66;38.48
13124;BME280;6627;50.920;12.050;2023-03-26T11:51:29;97182.84;;;19.37;39.20
13124;BME280;6627;50.920;12.050;2023-03-26T11:53:58;97287.06;;;19.87;38.74
13124;BME280;6627;50.920;12.050;2023-03-26T11:56:30;97124.09;;;19.21;38.12
13124;BME280;6627;50.920;12.050;2023-03-26T11:59:03;97258.09;;;19.65;39.29
13124;BME280;6627;50.920;12.050;2023-03-26T12:01:48;97224.38;;;19.54;39.05
13124;BME280;6627;50.920;12.050;2023-03-26T12:04:19;97158.66;;;18.89;39.96
13124;BME280;6627;50.920;12.050;2023-03-26T12:06:56;97177.47;;;18.87;40.65
13124;BME280;6627;50.920;12.050;2023-03-26T12:09:25;97216.66;;;19.02;40.99
13124;BME280;6627;50.920;12.050;2023-03-26T12:11:59;97257.41;;;18.97;41.57
13124;BME280;6627;50.920;12.050;2023-03-26T12:14:31;97328.38;;;19.20;42.05
13124;BME280;6627;50.920;12.050;2023-03-26T12:17:03;97321.69;;;19.03;42.88
13124;BME280;6627;50.920;12.050;2023-03-26T12:19:37;97349.53;;;19.12;43.01
13124;BME280;6627;50.920;12.050;2023-03-26T12:22:27;97437.03;;;19.67;42.20
13124;BME280;6627;50.920;12.050;2023-03-26T12:25:15;97459.00;;;19.74;42.87
13124;BME280;6627;50.920;12.050;2023-03-26T12:27:47;97361.56;;;18.61;45.22
13124;BME280;6627;50.920;12.050;2023-03-26T12:30:21;97234.50;;;17.93;44.92
13124;BME280;6627;50.920;12.050;2023-03-26T12:32:50;97504.81;;;19.13;45.29
13124;BME280;6627;50.920;12.050;2023-03-26T12:35:24;97420.34;;;18.67;45.57
13124;BME280;6627;50.920;12.050;2023-03-26T12:37:55;97310.75;;;17.76;47.16
13124;BME280;6627;50.920;12.050;2023-03-26T12:40:40;97489.31;;;18.65;46.65
13124;BME280;6627;50.920;12.050;2023-03-26T12:43:21;97370.69;;;17.96;46.64
13124;BME280;6627;50.920;12.050;2023-03-26T12:45:54;97516.69;;;18.58;47.56
13124;BME280;6627;50.920;12.050;2023-03-26T12:48:24;97415.22;;;17.82;47.96
13124;BME280;6627;50.920;12.050;2023-03-26T12:51:07;97483.69;;;18.40;47.18
13124;BME280;6627;50.920;12.050;2023-03-26T12:53:57;97584.44;;;19.27;45.64
13124;BME280;6627;50.920;12.050;2023-03-26T12:56:33;97486.41;;;18.40;46.98
13124;BME280;6627;50.920;12.050;2023-03-26T12:59:27;97560.88;;;19.19;45.79
13124;BME280;6627;50.920;12.050;2023-03-26T13:02:15;97593.16;;;19.58;45.41
13124;BME280;6627;50.920;12.050;2023-03-26T13:05:13;97540.06;;;19.04;46.27
13124;BME280;6627;50.920;12.050;2023-03-26T13:08:05;97466.63;;;18.72;46.41
13124;BME280;6627;50.920;12.050;2023-03-26T13:10:49;97620.63;;;19.58;46.97
13124;BME280;6627;50.920;12.050;2023-03-26T13:16:48;97634.88;;;19.88;46.38
13124;BME280;6627;50.920;12.050;2023-03-26T13:19:24;97645.88;;;20.13;45.35
13124;BME280;6627;50.920;12.050;2023-03-26T13:22:12;97636.41;;;19.72;47.42
13124;BME280;6627;50.920;12.050;2023-03-26T13:24:51;97596.78;;;19.83;45.95
13124;BME280;6627;50.920;12.050;2023-03-26T13:27:35;97598.75;;;19.76;46.66
13124;BME280;6627;50.920;12.050;2023-03-26T13:30:21;97655.34;;;20.20;46.53
13124;BME280;6627;50.920;12.050;2023-03-26T13:33:14;97485.22;;;19.18;46.83
13124;BME280;6627;50.920;12.050;2023-03-26T13:35:51;97482.75;;;18.88;47.65
13124;BME280;6627;50.920;12.050;2023-03-26T13:38:35;97594.00;;;19.69;47.54
13124;BME280;6627;50.920;12.050;2023-03-26T13:41:18;97569.19;;;19.48;48.30
13124;BME280;6627;50.920;12.050;2023-03-26T13:44:01;97506.75;;;19.16;48.01
13124;BME280;6627;50.920;12.050;2023-03-26T13:46:34;97585.38;;;19.71;47.11
13124;BME280;6627;50.920;12.050;2023-03-26T13:49:09;97533.50;;;19.40;47.08
13124;BME280;6627;50.920;12.050;2023-03-26T13:51:43;97457.56;;;18.68;47.97
13124;BME280;6627;50.920;12.050;2023-03-26T13:54:20;97422.38;;;18.01;50.02
13124;BME280;6627;50.920;12.050;2023-03-26T13:56:55;97287.56;;;17.08;50.17
13124;BME280;6627;50.920;12.050;2023-03-26T13:59:31;97337.34;;;17.24;50.77
13124;BME280;6627;50.920;12.050;2023-03-26T14:02:09;97305.78;;;16.89;51.19
13124;BME280;6627;50.920;12.050;2023-03-26T14:04:42;97258.56;;;16.52;50.83
13124;BME280;6627;50.920;12.050;2023-03-26T14:07:15;97342.38;;;16.74;52.58
13124;BME280;6627;50.920;12.050;2023-03-26T14:09:52;97475.06;;;17.35;52.90
13124;BME280;6627;50.920;12.050;2023-03-26T14:12:47;97536.00;;;18.18;50.81
13124;BME280;6627;50.920;12.050;2023-03-26T14:15:25;97560.50;;;18.48;50.09
13124;BME280;6627;50.920;12.050;2023-03-26T14:18:04;97389.72;;;17.26;50.13